ANA628 RJFK-RJTT
Flight info
| Callsign | ANA628 |
|---|---|
| Flight time | 1h 10m |
| Altitude | 41000 |
| Route | MIDAI M750 BILLY Y21 AKSEL |
| Aircraft | B788/H-SDE1E2E3FGHIJ2J3J4J5M1RWXY/LB1D1 |
Departure
| Time | 2026-05-08 14:18 |
|---|---|
| Airport | Kagoshima Airport (RJFK) |
Arrival
| Time | 2026-05-08 15:28 |
|---|---|
| Airport | Tokyo Haneda International Airport (RJTT) |
| Time | Latitude | Longitude | Altitude | Speed | Heading |
|---|---|---|---|---|---|
| 2026-05-08 13:38 | 31.80214 | 130.71630 | 865 ft | 0 kts | 240° |
| 2026-05-08 14:03 | 31.80218 | 130.71637 | 858 ft | 4 kts | 240° |
| 2026-05-08 14:03 | 31.80232 | 130.71665 | 909 ft | 4 kts | 240° |
| 2026-05-08 14:04 | 31.80245 | 130.71692 | 909 ft | 4 kts | 240° |
| 2026-05-08 14:04 | 31.80257 | 130.71714 | 909 ft | 4 kts | 232° |
| 2026-05-08 14:04 | 31.80276 | 130.71732 | 907 ft | 4 kts | 202° |
| 2026-05-08 14:04 | 31.80300 | 130.71736 | 901 ft | 4 kts | 172° |
| 2026-05-08 14:05 | 31.80324 | 130.71726 | 907 ft | 3 kts | 150° |
| 2026-05-08 14:05 | 31.80327 | 130.71724 | 902 ft | 0 kts | 150° |
| 2026-05-08 14:09 | 31.80317 | 130.71730 | 905 ft | 4 kts | 150° |
| 2026-05-08 14:10 | 31.80275 | 130.71759 | 902 ft | 11 kts | 151° |
| 2026-05-08 14:10 | 31.80188 | 130.71817 | 903 ft | 18 kts | 150° |
| 2026-05-08 14:10 | 31.80067 | 130.71899 | 900 ft | 21 kts | 150° |
| 2026-05-08 14:10 | 31.79937 | 130.71986 | 898 ft | 22 kts | 150° |
| 2026-05-08 14:11 | 31.79820 | 130.72066 | 895 ft | 18 kts | 150° |
| 2026-05-08 14:11 | 31.79702 | 130.72146 | 893 ft | 19 kts | 150° |
| 2026-05-08 14:11 | 31.79597 | 130.72217 | 893 ft | 16 kts | 150° |
| 2026-05-08 14:11 | 31.79497 | 130.72284 | 893 ft | 17 kts | 150° |
| 2026-05-08 14:12 | 31.79393 | 130.72355 | 891 ft | 18 kts | 150° |
| 2026-05-08 14:12 | 31.79280 | 130.72431 | 891 ft | 19 kts | 149° |
| 2026-05-08 14:12 | 31.79170 | 130.72505 | 891 ft | 18 kts | 149° |
| 2026-05-08 14:12 | 31.79121 | 130.72574 | 889 ft | 10 kts | 98° |
| 2026-05-08 14:13 | 31.79134 | 130.72629 | 889 ft | 0 kts | 60° |
| 2026-05-08 14:16 | 31.79144 | 130.72648 | 885 ft | 7 kts | 59° |
| 2026-05-08 14:17 | 31.79187 | 130.72686 | 887 ft | 8 kts | 20° |
| 2026-05-08 14:17 | 31.79239 | 130.72683 | 888 ft | 7 kts | 337° |
| 2026-05-08 14:17 | 31.79285 | 130.72653 | 890 ft | 8 kts | 330° |
| 2026-05-08 14:17 | 31.79345 | 130.72612 | 891 ft | 22 kts | 330° |
| 2026-05-08 14:18 | 31.79668 | 130.72394 | 894 ft | 87 kts | 330° |
| 2026-05-08 14:18 | 31.80376 | 130.71915 | 917 ft | 146 kts | 330° |
| 2026-05-08 14:18 | 31.81331 | 130.71282 | 1545 ft | 157 kts | 333° |
| 2026-05-08 14:18 | 31.82184 | 130.70714 | 2873 ft | 139 kts | 336° |
| 2026-05-08 14:19 | 31.84113 | 130.71564 | 3872 ft | 190 kts | 47° |
| 2026-05-08 14:19 | 31.84512 | 130.73165 | 4415 ft | 223 kts | 82° |
| 2026-05-08 14:19 | 31.84407 | 130.75085 | 4992 ft | 247 kts | 92° |
| 2026-05-08 14:20 | 31.84211 | 130.77176 | 5622 ft | 268 kts | 91° |
| 2026-05-08 14:20 | 31.84009 | 130.79446 | 6252 ft | 288 kts | 99° |
| 2026-05-08 14:20 | 31.83082 | 130.81566 | 7113 ft | 298 kts | 131° |
| 2026-05-08 14:20 | 31.81446 | 130.83063 | 8045 ft | 299 kts | 150° |
| 2026-05-08 14:21 | 31.79668 | 130.84354 | 9023 ft | 303 kts | 151° |
| 2026-05-08 14:21 | 31.77852 | 130.85648 | 9951 ft | 307 kts | 152° |
| 2026-05-08 14:21 | 31.76001 | 130.86975 | 10621 ft | 319 kts | 152° |
| 2026-05-08 14:21 | 31.74051 | 130.88383 | 11098 ft | 338 kts | 152° |
| 2026-05-08 14:22 | 31.71990 | 130.89870 | 11522 ft | 358 kts | 152° |
| 2026-05-08 14:22 | 31.69972 | 130.91716 | 11883 ft | 382 kts | 134° |
| 2026-05-08 14:22 | 31.68569 | 130.94451 | 12414 ft | 400 kts | 111° |
| 2026-05-08 14:22 | 31.67847 | 130.97633 | 13085 ft | 409 kts | 101° |
| 2026-05-08 14:23 | 31.67409 | 131.00959 | 13786 ft | 415 kts | 99° |
| 2026-05-08 14:23 | 31.66969 | 131.04291 | 14413 ft | 421 kts | 102° |
| 2026-05-08 14:23 | 31.66306 | 131.07664 | 15066 ft | 426 kts | 106° |
| 2026-05-08 14:23 | 31.65552 | 131.11049 | 15693 ft | 431 kts | 105° |
| 2026-05-08 14:24 | 31.64883 | 131.14508 | 16300 ft | 438 kts | 103° |
| 2026-05-08 14:24 | 31.64262 | 131.18030 | 16865 ft | 444 kts | 103° |
| 2026-05-08 14:24 | 31.63590 | 131.21596 | 17436 ft | 449 kts | 104° |
| 2026-05-08 14:24 | 31.62870 | 131.25182 | 18006 ft | 454 kts | 104° |
| 2026-05-08 14:25 | 31.62155 | 131.28821 | 18531 ft | 459 kts | 104° |
| 2026-05-08 14:25 | 31.61590 | 131.32537 | 19003 ft | 465 kts | 94° |
| 2026-05-08 14:25 | 31.61684 | 131.36342 | 19474 ft | 469 kts | 80° |
| 2026-05-08 14:25 | 31.62469 | 131.40054 | 19942 ft | 471 kts | 66° |
| 2026-05-08 14:26 | 31.63887 | 131.43459 | 20383 ft | 471 kts | 55° |
| 2026-05-08 14:26 | 31.65576 | 131.46782 | 20768 ft | 477 kts | 56° |
| 2026-05-08 14:26 | 31.67300 | 131.50135 | 21191 ft | 482 kts | 54° |
| 2026-05-08 14:26 | 31.69049 | 131.53528 | 21602 ft | 487 kts | 55° |
| 2026-05-08 14:27 | 31.70799 | 131.56961 | 21989 ft | 492 kts | 55° |
| 2026-05-08 14:27 | 31.72561 | 131.60435 | 22392 ft | 498 kts | 55° |
| 2026-05-08 14:27 | 31.74347 | 131.63941 | 22779 ft | 502 kts | 55° |
| 2026-05-08 14:27 | 31.76152 | 131.67473 | 23164 ft | 507 kts | 55° |
| 2026-05-08 14:28 | 31.77968 | 131.71041 | 23546 ft | 511 kts | 55° |
| 2026-05-08 14:28 | 31.79797 | 131.74646 | 23860 ft | 515 kts | 55° |
| 2026-05-08 14:28 | 31.81643 | 131.78284 | 24159 ft | 519 kts | 56° |
| 2026-05-08 14:28 | 31.83498 | 131.81938 | 24487 ft | 522 kts | 56° |
| 2026-05-08 14:29 | 31.85363 | 131.85619 | 24822 ft | 525 kts | 56° |
| 2026-05-08 14:29 | 31.87212 | 131.89272 | 25111 ft | 528 kts | 56° |
| 2026-05-08 14:29 | 31.89097 | 131.93000 | 25411 ft | 532 kts | 56° |
| 2026-05-08 14:29 | 31.90379 | 131.95536 | 25612 ft | 534 kts | 56° |
| 2026-05-08 14:30 | 31.92263 | 131.99267 | 25890 ft | 537 kts | 56° |
| 2026-05-08 14:30 | 31.94173 | 132.03053 | 26204 ft | 539 kts | 56° |
| 2026-05-08 14:30 | 31.96091 | 132.06861 | 26532 ft | 542 kts | 56° |
| 2026-05-08 14:30 | 31.98021 | 132.10694 | 26829 ft | 545 kts | 56° |
| 2026-05-08 14:31 | 31.99963 | 132.14556 | 27126 ft | 548 kts | 57° |
| 2026-05-08 14:31 | 32.01911 | 132.18432 | 27437 ft | 551 kts | 57° |
| 2026-05-08 14:31 | 32.03870 | 132.22337 | 27727 ft | 554 kts | 57° |
| 2026-05-08 14:32 | 32.07815 | 132.30210 | 28361 ft | 560 kts | 57° |
| 2026-05-08 14:32 | 32.09771 | 132.34119 | 28642 ft | 563 kts | 57° |
| 2026-05-08 14:32 | 32.11766 | 132.38112 | 28931 ft | 566 kts | 57° |
| 2026-05-08 14:32 | 32.13636 | 132.42220 | 29200 ft | 570 kts | 62° |
| 2026-05-08 14:33 | 32.15411 | 132.46421 | 29497 ft | 573 kts | 62° |
| 2026-05-08 14:33 | 32.17196 | 132.50642 | 29794 ft | 575 kts | 62° |
| 2026-05-08 14:33 | 32.19000 | 132.54888 | 30089 ft | 579 kts | 62° |
| 2026-05-08 14:33 | 32.20810 | 132.59148 | 30328 ft | 582 kts | 62° |
| 2026-05-08 14:34 | 32.22624 | 132.63441 | 30565 ft | 585 kts | 62° |
| 2026-05-08 14:34 | 32.24440 | 132.67752 | 30809 ft | 588 kts | 62° |
| 2026-05-08 14:34 | 32.26267 | 132.72080 | 31052 ft | 590 kts | 62° |
| 2026-05-08 14:34 | 32.28080 | 132.76375 | 31313 ft | 593 kts | 62° |
| 2026-05-08 14:35 | 32.29925 | 132.80758 | 31547 ft | 595 kts | 62° |
| 2026-05-08 14:35 | 32.31769 | 132.85148 | 31793 ft | 597 kts | 62° |
| 2026-05-08 14:35 | 32.33620 | 132.89559 | 32052 ft | 599 kts | 62° |
| 2026-05-08 14:35 | 32.35471 | 132.93970 | 32408 ft | 598 kts | 62° |
| 2026-05-08 14:36 | 32.37319 | 132.98382 | 32780 ft | 598 kts | 62° |
| 2026-05-08 14:36 | 32.39161 | 133.02787 | 33175 ft | 597 kts | 62° |
| 2026-05-08 14:36 | 32.41006 | 133.07203 | 33536 ft | 597 kts | 62° |
| 2026-05-08 14:36 | 32.42842 | 133.11602 | 33898 ft | 597 kts | 63° |
| 2026-05-08 14:37 | 32.44680 | 133.16012 | 34231 ft | 596 kts | 63° |
| 2026-05-08 14:37 | 32.46512 | 133.20415 | 34537 ft | 596 kts | 62° |
| 2026-05-08 14:37 | 32.48342 | 133.24816 | 34840 ft | 595 kts | 62° |
| 2026-05-08 14:37 | 32.50171 | 133.29221 | 35176 ft | 594 kts | 62° |
| 2026-05-08 14:38 | 32.51990 | 133.33609 | 35505 ft | 593 kts | 62° |
| 2026-05-08 14:38 | 32.53786 | 133.37944 | 35820 ft | 592 kts | 62° |
| 2026-05-08 14:38 | 32.55600 | 133.42329 | 36112 ft | 592 kts | 62° |
| 2026-05-08 14:38 | 32.57411 | 133.46714 | 36436 ft | 591 kts | 62° |
| 2026-05-08 14:39 | 32.59218 | 133.51092 | 36734 ft | 590 kts | 62° |
| 2026-05-08 14:39 | 32.61019 | 133.55461 | 37035 ft | 589 kts | 62° |
| 2026-05-08 14:39 | 32.62820 | 133.59834 | 37341 ft | 588 kts | 62° |
| 2026-05-08 14:39 | 32.64590 | 133.64138 | 37612 ft | 588 kts | 62° |
| 2026-05-08 14:40 | 32.66380 | 133.68498 | 37918 ft | 586 kts | 62° |
| 2026-05-08 14:40 | 32.68169 | 133.72859 | 38252 ft | 586 kts | 62° |
| 2026-05-08 14:40 | 32.69948 | 133.77202 | 38549 ft | 585 kts | 62° |
| 2026-05-08 14:40 | 32.71724 | 133.81542 | 38813 ft | 584 kts | 62° |
| 2026-05-08 14:41 | 32.73497 | 133.85879 | 39021 ft | 583 kts | 62° |
| 2026-05-08 14:41 | 32.75266 | 133.90213 | 39240 ft | 583 kts | 62° |
| 2026-05-08 14:41 | 32.77032 | 133.94547 | 39495 ft | 582 kts | 62° |
| 2026-05-08 14:41 | 32.78795 | 133.98876 | 39704 ft | 582 kts | 62° |
| 2026-05-08 14:42 | 32.80557 | 134.03209 | 39897 ft | 582 kts | 62° |
| 2026-05-08 14:42 | 32.82221 | 134.07540 | 40109 ft | 583 kts | 70° |
| 2026-05-08 14:42 | 32.83444 | 134.12116 | 40325 ft | 582 kts | 73° |
| 2026-05-08 14:42 | 32.84591 | 134.16744 | 40547 ft | 583 kts | 73° |
| 2026-05-08 14:43 | 32.85730 | 134.21379 | 40749 ft | 583 kts | 73° |
| 2026-05-08 14:43 | 32.86883 | 134.25988 | 40941 ft | 582 kts | 72° |
| 2026-05-08 14:43 | 32.89194 | 134.35231 | 40995 ft | 579 kts | 73° |
| 2026-05-08 14:44 | 32.91456 | 134.44400 | 40999 ft | 576 kts | 73° |
| 2026-05-08 14:44 | 32.93710 | 134.53499 | 40992 ft | 577 kts | 73° |
| 2026-05-08 14:45 | 32.95961 | 134.62666 | 40973 ft | 576 kts | 73° |
| 2026-05-08 14:45 | 32.98210 | 134.71824 | 40988 ft | 575 kts | 73° |
| 2026-05-08 14:46 | 33.00455 | 134.81017 | 40997 ft | 579 kts | 73° |
| 2026-05-08 14:46 | 33.02698 | 134.90224 | 40997 ft | 579 kts | 73° |
| 2026-05-08 14:47 | 33.04935 | 134.99448 | 41034 ft | 579 kts | 73° |
| 2026-05-08 14:47 | 33.07160 | 135.08647 | 40997 ft | 575 kts | 74° |
| 2026-05-08 14:48 | 33.09358 | 135.17769 | 40998 ft | 576 kts | 74° |
| 2026-05-08 14:48 | 33.11415 | 135.27000 | 41005 ft | 576 kts | 75° |
| 2026-05-08 14:49 | 33.13524 | 135.36224 | 40992 ft | 576 kts | 76° |
| 2026-05-08 14:49 | 33.15528 | 135.45504 | 40985 ft | 576 kts | 75° |
| 2026-05-08 14:50 | 33.17591 | 135.54755 | 40996 ft | 576 kts | 75° |
| 2026-05-08 14:50 | 33.19602 | 135.64015 | 40980 ft | 577 kts | 76° |
| 2026-05-08 14:51 | 33.21622 | 135.73230 | 40985 ft | 577 kts | 76° |
| 2026-05-08 14:51 | 33.23638 | 135.82526 | 40982 ft | 580 kts | 76° |
| 2026-05-08 14:52 | 33.26656 | 135.96463 | 40962 ft | 576 kts | 76° |
| 2026-05-08 14:53 | 33.28654 | 136.05761 | 40969 ft | 579 kts | 76° |
| 2026-05-08 14:53 | 33.30658 | 136.15097 | 40967 ft | 579 kts | 76° |
| 2026-05-08 14:54 | 33.32650 | 136.24431 | 40969 ft | 580 kts | 76° |
| 2026-05-08 14:54 | 33.34640 | 136.33779 | 40967 ft | 580 kts | 76° |
| 2026-05-08 14:55 | 33.36607 | 136.43067 | 40962 ft | 578 kts | 76° |
| 2026-05-08 14:55 | 33.38576 | 136.52393 | 40954 ft | 577 kts | 76° |
| 2026-05-08 14:56 | 33.40533 | 136.61707 | 40949 ft | 576 kts | 76° |
| 2026-05-08 14:56 | 33.42481 | 136.71012 | 40948 ft | 576 kts | 76° |
| 2026-05-08 14:57 | 33.44422 | 136.80317 | 40952 ft | 575 kts | 77° |
| 2026-05-08 14:57 | 33.46285 | 136.89289 | 40955 ft | 575 kts | 77° |
| 2026-05-08 14:58 | 33.48156 | 136.98334 | 40956 ft | 575 kts | 77° |
| 2026-05-08 14:58 | 33.50061 | 137.07580 | 40953 ft | 575 kts | 77° |
| 2026-05-08 14:59 | 33.51973 | 137.16898 | 40954 ft | 576 kts | 77° |
| 2026-05-08 14:59 | 33.54860 | 137.31035 | 40951 ft | 586 kts | 77° |
| 2026-05-08 15:00 | 33.56786 | 137.40519 | 40950 ft | 586 kts | 77° |
| 2026-05-08 15:00 | 33.58707 | 137.50020 | 40942 ft | 586 kts | 77° |
| 2026-05-08 15:01 | 33.60648 | 137.59516 | 40941 ft | 586 kts | 73° |
| 2026-05-08 15:01 | 33.62109 | 137.64067 | 40955 ft | 583 kts | 61° |
| 2026-05-08 15:01 | 33.64024 | 137.68348 | 40949 ft | 582 kts | 59° |
| 2026-05-08 15:02 | 33.65981 | 137.72600 | 40781 ft | 581 kts | 59° |
| 2026-05-08 15:02 | 33.67940 | 137.76840 | 40623 ft | 580 kts | 59° |
| 2026-05-08 15:02 | 33.69880 | 137.81083 | 40388 ft | 580 kts | 60° |
| 2026-05-08 15:02 | 33.71815 | 137.85343 | 40171 ft | 580 kts | 60° |
| 2026-05-08 15:03 | 33.73755 | 137.89595 | 39959 ft | 581 kts | 60° |
| 2026-05-08 15:03 | 33.75701 | 137.93848 | 39726 ft | 581 kts | 60° |
| 2026-05-08 15:03 | 33.77640 | 137.98102 | 39498 ft | 581 kts | 60° |
| 2026-05-08 15:03 | 33.79580 | 138.02376 | 39292 ft | 581 kts | 60° |
| 2026-05-08 15:04 | 33.81491 | 138.06591 | 39061 ft | 582 kts | 60° |
| 2026-05-08 15:04 | 33.83434 | 138.10868 | 38845 ft | 582 kts | 60° |
| 2026-05-08 15:04 | 33.85372 | 138.15141 | 38625 ft | 583 kts | 60° |
| 2026-05-08 15:04 | 33.87310 | 138.19424 | 38370 ft | 583 kts | 61° |
| 2026-05-08 15:05 | 33.89249 | 138.23719 | 38090 ft | 584 kts | 61° |
| 2026-05-08 15:05 | 33.91186 | 138.28008 | 37703 ft | 584 kts | 61° |
| 2026-05-08 15:05 | 33.93125 | 138.32323 | 36961 ft | 587 kts | 62° |
| 2026-05-08 15:05 | 33.95049 | 138.36665 | 36255 ft | 588 kts | 62° |
| 2026-05-08 15:06 | 33.96974 | 138.41014 | 35567 ft | 588 kts | 63° |
| 2026-05-08 15:06 | 33.98911 | 138.45362 | 34899 ft | 588 kts | 63° |
| 2026-05-08 15:06 | 34.00848 | 138.49706 | 34248 ft | 588 kts | 63° |
| 2026-05-08 15:06 | 34.02778 | 138.54063 | 33564 ft | 583 kts | 64° |
| 2026-05-08 15:07 | 34.04646 | 138.58292 | 32826 ft | 563 kts | 63° |
| 2026-05-08 15:07 | 34.06513 | 138.62518 | 32133 ft | 575 kts | 63° |
| 2026-05-08 15:07 | 34.08370 | 138.66718 | 31453 ft | 575 kts | 63° |
| 2026-05-08 15:07 | 34.10253 | 138.70980 | 30796 ft | 575 kts | 63° |
| 2026-05-08 15:08 | 34.12125 | 138.75230 | 30142 ft | 575 kts | 62° |
| 2026-05-08 15:08 | 34.13391 | 138.78109 | 29673 ft | 574 kts | 62° |
| 2026-05-08 15:08 | 34.15873 | 138.83754 | 28691 ft | 573 kts | 62° |
| 2026-05-08 15:08 | 34.17737 | 138.87996 | 27964 ft | 571 kts | 62° |
| 2026-05-08 15:09 | 34.19596 | 138.92235 | 27261 ft | 569 kts | 62° |
| 2026-05-08 15:09 | 34.21441 | 138.96450 | 26580 ft | 566 kts | 62° |
| 2026-05-08 15:09 | 34.23277 | 139.00646 | 25904 ft | 563 kts | 62° |
| 2026-05-08 15:09 | 34.25100 | 139.04817 | 25268 ft | 559 kts | 61° |
| 2026-05-08 15:10 | 34.26910 | 139.08963 | 24620 ft | 556 kts | 61° |
| 2026-05-08 15:10 | 34.28634 | 139.13034 | 23966 ft | 528 kts | 66° |
| 2026-05-08 15:10 | 34.30068 | 139.17145 | 23360 ft | 535 kts | 67° |
| 2026-05-08 15:10 | 34.31475 | 139.21252 | 22603 ft | 513 kts | 67° |
| 2026-05-08 15:11 | 34.32804 | 139.25121 | 21887 ft | 484 kts | 67° |
| 2026-05-08 15:11 | 34.34070 | 139.28777 | 21208 ft | 460 kts | 67° |
| 2026-05-08 15:11 | 34.35339 | 139.32213 | 20859 ft | 441 kts | 57° |
| 2026-05-08 15:11 | 34.37185 | 139.35120 | 20582 ft | 431 kts | 41° |
| 2026-05-08 15:12 | 34.39451 | 139.37439 | 20049 ft | 423 kts | 27° |
| 2026-05-08 15:12 | 34.42004 | 139.39132 | 19535 ft | 414 kts | 16° |
| 2026-05-08 15:12 | 34.44650 | 139.40507 | 19016 ft | 413 kts | 16° |
| 2026-05-08 15:12 | 34.47208 | 139.41849 | 18506 ft | 396 kts | 17° |
| 2026-05-08 15:13 | 34.49660 | 139.43179 | 17968 ft | 378 kts | 17° |
| 2026-05-08 15:13 | 34.52049 | 139.44462 | 17371 ft | 373 kts | 16° |
| 2026-05-08 15:13 | 34.54416 | 139.45714 | 16876 ft | 370 kts | 16° |
| 2026-05-08 15:13 | 34.56768 | 139.46965 | 16395 ft | 369 kts | 17° |
| 2026-05-08 15:14 | 34.59109 | 139.48222 | 15924 ft | 367 kts | 17° |
| 2026-05-08 15:14 | 34.61437 | 139.49472 | 15471 ft | 365 kts | 17° |
| 2026-05-08 15:14 | 34.63753 | 139.50712 | 15038 ft | 362 kts | 17° |
| 2026-05-08 15:14 | 34.66057 | 139.51945 | 14608 ft | 360 kts | 17° |
| 2026-05-08 15:15 | 34.68126 | 139.53054 | 14217 ft | 358 kts | 17° |
| 2026-05-08 15:15 | 34.70419 | 139.54287 | 13797 ft | 355 kts | 17° |
| 2026-05-08 15:15 | 34.72676 | 139.55498 | 13363 ft | 353 kts | 17° |
| 2026-05-08 15:15 | 34.74911 | 139.56699 | 12896 ft | 350 kts | 17° |
| 2026-05-08 15:16 | 34.77126 | 139.57890 | 12442 ft | 346 kts | 17° |
| 2026-05-08 15:16 | 34.79321 | 139.59071 | 11989 ft | 343 kts | 16° |
| 2026-05-08 15:16 | 34.81497 | 139.60242 | 11530 ft | 340 kts | 16° |
| 2026-05-08 15:16 | 34.82925 | 139.61011 | 11266 ft | 338 kts | 17° |
| 2026-05-08 15:17 | 34.85060 | 139.62161 | 10834 ft | 334 kts | 17° |
| 2026-05-08 15:17 | 34.87185 | 139.63306 | 10402 ft | 331 kts | 17° |
| 2026-05-08 15:17 | 34.89279 | 139.64435 | 9971 ft | 328 kts | 17° |
| 2026-05-08 15:17 | 34.92024 | 139.65918 | 9501 ft | 323 kts | 17° |
| 2026-05-08 15:18 | 34.93414 | 139.66667 | 9284 ft | 324 kts | 17° |
| 2026-05-08 15:18 | 34.95468 | 139.67775 | 8979 ft | 322 kts | 17° |
| 2026-05-08 15:18 | 34.97513 | 139.68882 | 8665 ft | 321 kts | 17° |
| 2026-05-08 15:18 | 34.99545 | 139.69981 | 8349 ft | 319 kts | 17° |
| 2026-05-08 15:19 | 35.01573 | 139.71078 | 8045 ft | 318 kts | 17° |
| 2026-05-08 15:19 | 35.03583 | 139.72167 | 7787 ft | 316 kts | 17° |
| 2026-05-08 15:19 | 35.05569 | 139.73242 | 7513 ft | 315 kts | 17° |
| 2026-05-08 15:19 | 35.07568 | 139.74326 | 7247 ft | 313 kts | 17° |
| 2026-05-08 15:20 | 35.09529 | 139.75392 | 6980 ft | 304 kts | 17° |
| 2026-05-08 15:20 | 35.11480 | 139.76449 | 6723 ft | 305 kts | 17° |
| 2026-05-08 15:20 | 35.13419 | 139.77500 | 6482 ft | 305 kts | 17° |
| 2026-05-08 15:20 | 35.15357 | 139.78552 | 6246 ft | 303 kts | 17° |
| 2026-05-08 15:21 | 35.17276 | 139.79596 | 6002 ft | 301 kts | 17° |
| 2026-05-08 15:21 | 35.19206 | 139.80622 | 5998 ft | 305 kts | 13° |
| 2026-05-08 15:21 | 35.21202 | 139.80998 | 5743 ft | 283 kts | 349° |
| 2026-05-08 15:21 | 35.23063 | 139.80569 | 5423 ft | 266 kts | 336° |
| 2026-05-08 15:22 | 35.24804 | 139.80016 | 5088 ft | 253 kts | 336° |
| 2026-05-08 15:22 | 35.26438 | 139.79504 | 4745 ft | 234 kts | 336° |
| 2026-05-08 15:22 | 35.27984 | 139.79008 | 4390 ft | 227 kts | 335° |
| 2026-05-08 15:22 | 35.29490 | 139.78517 | 4060 ft | 220 kts | 341° |
| 2026-05-08 15:23 | 35.30982 | 139.78144 | 3974 ft | 222 kts | 356° |
| 2026-05-08 15:23 | 35.32491 | 139.78655 | 3976 ft | 231 kts | 27° |
| 2026-05-08 15:23 | 35.33812 | 139.79806 | 3879 ft | 236 kts | 33° |
| 2026-05-08 15:23 | 35.35105 | 139.80994 | 3551 ft | 234 kts | 33° |
| 2026-05-08 15:24 | 35.36402 | 139.82171 | 3188 ft | 227 kts | 33° |
| 2026-05-08 15:24 | 35.37680 | 139.83323 | 2831 ft | 227 kts | 33° |
| 2026-05-08 15:24 | 35.38931 | 139.84453 | 2472 ft | 219 kts | 33° |
| 2026-05-08 15:24 | 35.40143 | 139.85546 | 2111 ft | 214 kts | 33° |
| 2026-05-08 15:25 | 35.41326 | 139.86567 | 1987 ft | 196 kts | 26° |
| 2026-05-08 15:25 | 35.42494 | 139.86886 | 1963 ft | 160 kts | 356° |
| 2026-05-08 15:25 | 35.43576 | 139.86887 | 1984 ft | 153 kts | 354° |
| 2026-05-08 15:25 | 35.44616 | 139.86837 | 1958 ft | 147 kts | 345° |
| 2026-05-08 15:26 | 35.45558 | 139.86373 | 1927 ft | 154 kts | 328° |
| 2026-05-08 15:26 | 35.46514 | 139.85756 | 1732 ft | 152 kts | 326° |
| 2026-05-08 15:26 | 35.47459 | 139.85111 | 1529 ft | 154 kts | 325° |
| 2026-05-08 15:26 | 35.48345 | 139.84489 | 1363 ft | 157 kts | 325° |
| 2026-05-08 15:27 | 35.49279 | 139.83831 | 1151 ft | 153 kts | 326° |
| 2026-05-08 15:27 | 35.50201 | 139.83175 | 947 ft | 150 kts | 327° |
| 2026-05-08 15:27 | 35.51101 | 139.82539 | 770 ft | 152 kts | 329° |
| 2026-05-08 15:27 | 35.52003 | 139.81902 | 576 ft | 151 kts | 328° |
| 2026-05-08 15:28 | 35.52886 | 139.81277 | 372 ft | 145 kts | 328° |
| 2026-05-08 15:28 | 35.53774 | 139.80656 | 157 ft | 145 kts | 328° |
| 2026-05-08 15:28 | 35.54625 | 139.80050 | 35 ft | 131 kts | 329° |
| 2026-05-08 15:28 | 35.55150 | 139.79678 | 34 ft | 46 kts | 330° |
| 2026-05-08 15:29 | 35.55389 | 139.79479 | 33 ft | 38 kts | 317° |
| 2026-05-08 15:29 | 35.55489 | 139.79330 | 29 ft | 16 kts | 301° |
| 2026-05-08 15:29 | 35.55523 | 139.79245 | 28 ft | 9 kts | 281° |
| 2026-05-08 15:29 | 35.55516 | 139.79181 | 32 ft | 6 kts | 246° |
| 2026-05-08 15:30 | 35.55491 | 139.79126 | 31 ft | 9 kts | 239° |
| 2026-05-08 15:30 | 35.55459 | 139.79058 | 32 ft | 9 kts | 240° |
| 2026-05-08 15:30 | 35.55428 | 139.78993 | 33 ft | 9 kts | 240° |
| 2026-05-08 15:30 | 35.55390 | 139.78939 | 34 ft | 8 kts | 206° |
| 2026-05-08 15:31 | 35.55338 | 139.78940 | 33 ft | 8 kts | 159° |
| 2026-05-08 15:31 | 35.55287 | 139.78974 | 34 ft | 9 kts | 151° |
| 2026-05-08 15:31 | 35.55227 | 139.79016 | 33 ft | 11 kts | 150° |
| 2026-05-08 15:31 | 35.55175 | 139.79052 | 33 ft | 7 kts | 150° |
| 2026-05-08 15:32 | 35.55141 | 139.79065 | 33 ft | 4 kts | 202° |
| 2026-05-08 15:32 | 35.55129 | 139.79047 | 32 ft | 4 kts | 243° |
| 2026-05-08 15:32 | 35.55115 | 139.79017 | 33 ft | 3 kts | 240° |
| 2026-05-08 15:32 | 35.55108 | 139.79000 | 33 ft | 2 kts | 240° |
| 2026-05-08 15:33 | 35.55107 | 139.79000 | 33 ft | 0 kts | 240° |